sensor_id;sensor_type;location;lat;lon;timestamp;P1;durP1;ratioP1;P2;durP2;ratioP2
46290;SDS011;32023;44.444;26.006;2023-05-29T00:01:17;16.58;;;11.60;;
46290;SDS011;32023;44.444;26.006;2023-05-29T00:03:44;14.02;;;11.40;;
46290;SDS011;32023;44.444;26.006;2023-05-29T00:09:16;14.65;;;12.10;;
46290;SDS011;32023;44.444;26.006;2023-05-29T00:11:45;17.65;;;11.98;;
46290;SDS011;32023;44.444;26.006;2023-05-29T00:14:16;16.95;;;10.93;;
46290;SDS011;32023;44.444;26.006;2023-05-29T00:16:46;17.98;;;10.55;;
46290;SDS011;32023;44.444;26.006;2023-05-29T00:19:13;18.75;;;11.57;;
46290;SDS011;32023;44.444;26.006;2023-05-29T00:21:46;13.93;;;11.63;;
46290;SDS011;32023;44.444;26.006;2023-05-29T00:24:16;14.23;;;10.77;;
46290;SDS011;32023;44.444;26.006;2023-05-29T00:26:42;15.77;;;11.38;;
46290;SDS011;32023;44.444;26.006;2023-05-29T00:29:09;16.75;;;11.43;;
46290;SDS011;32023;44.444;26.006;2023-05-29T00:31:36;13.55;;;11.02;;
46290;SDS011;32023;44.444;26.006;2023-05-29T00:39:53;12.90;;;11.55;;
46290;SDS011;32023;44.444;26.006;2023-05-29T00:42:20;13.70;;;11.73;;
46290;SDS011;32023;44.444;26.006;2023-05-29T00:44:46;15.77;;;10.98;;
46290;SDS011;32023;44.444;26.006;2023-05-29T00:47:13;14.93;;;10.73;;
46290;SDS011;32023;44.444;26.006;2023-05-29T00:49:48;12.27;;;10.73;;
46290;SDS011;32023;44.444;26.006;2023-05-29T00:55:01;12.25;;;10.95;;
46290;SDS011;32023;44.444;26.006;2023-05-29T00:57:28;15.23;;;11.27;;
46290;SDS011;32023;44.444;26.006;2023-05-29T00:59:56;14.40;;;10.68;;
46290;SDS011;32023;44.444;26.006;2023-05-29T01:02:23;15.68;;;11.18;;
46290;SDS011;32023;44.444;26.006;2023-05-29T01:04:50;17.05;;;10.93;;
46290;SDS011;32023;44.444;26.006;2023-05-29T01:07:19;16.73;;;11.27;;
46290;SDS011;32023;44.444;26.006;2023-05-29T01:09:46;14.90;;;11.35;;
46290;SDS011;32023;44.444;26.006;2023-05-29T01:12:19;14.27;;;11.18;;
46290;SDS011;32023;44.444;26.006;2023-05-29T01:28:48;13.80;;;11.93;;
46290;SDS011;32023;44.444;26.006;2023-05-29T01:31:25;14.45;;;12.20;;
46290;SDS011;32023;44.444;26.006;2023-05-29T01:33:56;17.05;;;11.68;;
46290;SDS011;32023;44.444;26.006;2023-05-29T01:36:27;21.92;;;14.15;;
46290;SDS011;32023;44.444;26.006;2023-05-29T01:39:07;17.63;;;12.60;;
46290;SDS011;32023;44.444;26.006;2023-05-29T01:41:38;15.20;;;13.13;;
46290;SDS011;32023;44.444;26.006;2023-05-29T01:44:09;17.17;;;11.95;;
46290;SDS011;32023;44.444;26.006;2023-05-29T01:46:45;20.17;;;12.45;;
46290;SDS011;32023;44.444;26.006;2023-05-29T01:51:43;14.18;;;11.32;;
46290;SDS011;32023;44.444;26.006;2023-05-29T01:54:15;17.75;;;12.32;;
46290;SDS011;32023;44.444;26.006;2023-05-29T01:56:42;14.98;;;12.23;;
46290;SDS011;32023;44.444;26.006;2023-05-29T01:59:09;15.30;;;11.75;;
46290;SDS011;32023;44.444;26.006;2023-05-29T02:01:38;15.10;;;12.63;;
46290;SDS011;32023;44.444;26.006;2023-05-29T02:04:06;17.58;;;12.95;;
46290;SDS011;32023;44.444;26.006;2023-05-29T02:06:32;17.02;;;12.88;;
46290;SDS011;32023;44.444;26.006;2023-05-29T02:08:59;24.40;;;13.27;;
46290;SDS011;32023;44.444;26.006;2023-05-29T02:11:30;14.95;;;11.93;;
46290;SDS011;32023;44.444;26.006;2023-05-29T02:13:56;15.05;;;12.02;;
46290;SDS011;32023;44.444;26.006;2023-05-29T02:16:22;15.77;;;11.70;;
46290;SDS011;32023;44.444;26.006;2023-05-29T02:18:55;15.68;;;12.55;;
46290;SDS011;32023;44.444;26.006;2023-05-29T02:21:22;18.13;;;13.13;;
46290;SDS011;32023;44.444;26.006;2023-05-29T02:23:51;15.00;;;11.20;;
46290;SDS011;32023;44.444;26.006;2023-05-29T02:26:18;16.88;;;11.25;;
46290;SDS011;32023;44.444;26.006;2023-05-29T02:28:45;15.40;;;11.43;;
46290;SDS011;32023;44.444;26.006;2023-05-29T02:31:14;17.20;;;11.70;;
46290;SDS011;32023;44.444;26.006;2023-05-29T02:33:43;14.38;;;11.52;;
46290;SDS011;32023;44.444;26.006;2023-05-29T02:36:11;17.65;;;12.30;;
46290;SDS011;32023;44.444;26.006;2023-05-29T02:38:38;17.20;;;11.40;;
46290;SDS011;32023;44.444;26.006;2023-05-29T02:41:05;15.88;;;11.43;;
46290;SDS011;32023;44.444;26.006;2023-05-29T02:43:31;20.15;;;12.23;;
46290;SDS011;32023;44.444;26.006;2023-05-29T02:45:58;15.02;;;12.15;;
46290;SDS011;32023;44.444;26.006;2023-05-29T02:48:24;20.27;;;11.93;;
46290;SDS011;32023;44.444;26.006;2023-05-29T02:50:54;14.90;;;12.27;;
46290;SDS011;32023;44.444;26.006;2023-05-29T02:53:20;16.13;;;12.40;;
46290;SDS011;32023;44.444;26.006;2023-05-29T02:55:47;16.73;;;13.23;;
46290;SDS011;32023;44.444;26.006;2023-05-29T02:58:19;13.98;;;12.23;;
46290;SDS011;32023;44.444;26.006;2023-05-29T03:00:46;17.98;;;12.70;;
46290;SDS011;32023;44.444;26.006;2023-05-29T03:03:15;21.27;;;11.70;;
46290;SDS011;32023;44.444;26.006;2023-05-29T03:05:49;17.90;;;12.75;;
46290;SDS011;32023;44.444;26.006;2023-05-29T03:08:18;17.45;;;13.05;;
46290;SDS011;32023;44.444;26.006;2023-05-29T03:10:49;15.35;;;11.73;;
46290;SDS011;32023;44.444;26.006;2023-05-29T03:13:17;15.32;;;12.60;;
46290;SDS011;32023;44.444;26.006;2023-05-29T03:15:46;16.98;;;12.07;;
46290;SDS011;32023;44.444;26.006;2023-05-29T03:18:13;15.07;;;12.00;;
46290;SDS011;32023;44.444;26.006;2023-05-29T03:20:39;15.90;;;11.45;;
46290;SDS011;32023;44.444;26.006;2023-05-29T03:23:06;19.98;;;11.77;;
46290;SDS011;32023;44.444;26.006;2023-05-29T03:25:35;16.92;;;11.55;;
46290;SDS011;32023;44.444;26.006;2023-05-29T03:28:07;13.80;;;11.38;;
46290;SDS011;32023;44.444;26.006;2023-05-29T03:30:38;15.52;;;10.73;;
46290;SDS011;32023;44.444;26.006;2023-05-29T03:33:05;16.20;;;10.02;;
46290;SDS011;32023;44.444;26.006;2023-05-29T03:35:32;12.57;;;10.05;;
46290;SDS011;32023;44.444;26.006;2023-05-29T03:37:58;11.95;;;10.50;;
46290;SDS011;32023;44.444;26.006;2023-05-29T03:40:28;19.75;;;12.05;;
46290;SDS011;32023;44.444;26.006;2023-05-29T03:42:55;14.18;;;9.90;;
46290;SDS011;32023;44.444;26.006;2023-05-29T03:45:27;12.27;;;9.10;;
46290;SDS011;32023;44.444;26.006;2023-05-29T03:47:53;14.65;;;9.07;;
46290;SDS011;32023;44.444;26.006;2023-05-29T03:50:23;11.68;;;8.93;;
46290;SDS011;32023;44.444;26.006;2023-05-29T03:52:53;12.25;;;8.45;;
46290;SDS011;32023;44.444;26.006;2023-05-29T03:55:25;10.65;;;8.77;;
46290;SDS011;32023;44.444;26.006;2023-05-29T03:57:56;13.43;;;8.93;;
46290;SDS011;32023;44.444;26.006;2023-05-29T04:00:30;20.55;;;9.18;;
46290;SDS011;32023;44.444;26.006;2023-05-29T04:02:59;10.65;;;8.05;;
46290;SDS011;32023;44.444;26.006;2023-05-29T04:05:32;16.55;;;9.48;;
46290;SDS011;32023;44.444;26.006;2023-05-29T04:08:08;15.20;;;8.60;;
46290;SDS011;32023;44.444;26.006;2023-05-29T04:10:38;12.65;;;8.23;;
46290;SDS011;32023;44.444;26.006;2023-05-29T04:13:12;16.13;;;8.85;;
46290;SDS011;32023;44.444;26.006;2023-05-29T04:15:39;13.85;;;8.02;;
46290;SDS011;32023;44.444;26.006;2023-05-29T04:20:44;12.15;;;7.45;;
46290;SDS011;32023;44.444;26.006;2023-05-29T04:23:18;15.25;;;7.13;;
46290;SDS011;32023;44.444;26.006;2023-05-29T04:25:59;9.82;;;7.38;;
46290;SDS011;32023;44.444;26.006;2023-05-29T04:28:30;12.30;;;6.85;;
46290;SDS011;32023;44.444;26.006;2023-05-29T04:31:23;8.73;;;7.25;;
46290;SDS011;32023;44.444;26.006;2023-05-29T04:34:00;13.00;;;7.45;;
46290;SDS011;32023;44.444;26.006;2023-05-29T04:36:44;9.95;;;6.68;;
46290;SDS011;32023;44.444;26.006;2023-05-29T04:39:17;9.57;;;7.00;;
46290;SDS011;32023;44.444;26.006;2023-05-29T04:45:20;13.20;;;5.68;;
46290;SDS011;32023;44.444;26.006;2023-05-29T05:00:48;8.30;;;4.72;;
46290;SDS011;32023;44.444;26.006;2023-05-29T05:03:39;10.60;;;4.78;;
46290;SDS011;32023;44.444;26.006;2023-05-29T05:06:39;9.48;;;5.10;;
46290;SDS011;32023;44.444;26.006;2023-05-29T05:09:11;10.05;;;4.65;;
46290;SDS011;32023;44.444;26.006;2023-05-29T05:15:05;8.65;;;4.85;;
46290;SDS011;32023;44.444;26.006;2023-05-29T05:17:50;8.00;;;4.32;;
46290;SDS011;32023;44.444;26.006;2023-05-29T05:20:42;13.55;;;4.85;;
46290;SDS011;32023;44.444;26.006;2023-05-29T05:26:11;13.70;;;4.57;;
46290;SDS011;32023;44.444;26.006;2023-05-29T05:32:09;13.93;;;4.65;;
46290;SDS011;32023;44.444;26.006;2023-05-29T05:34:54;8.48;;;4.32;;
46290;SDS011;32023;44.444;26.006;2023-05-29T05:37:29;7.65;;;4.38;;
46290;SDS011;32023;44.444;26.006;2023-05-29T05:43:30;7.82;;;3.70;;
46290;SDS011;32023;44.444;26.006;2023-05-29T05:46:11;9.73;;;3.55;;
46290;SDS011;32023;44.444;26.006;2023-05-29T06:01:10;7.03;;;3.40;;
46290;SDS011;32023;44.444;26.006;2023-05-29T06:03:51;6.40;;;3.97;;
46290;SDS011;32023;44.444;26.006;2023-05-29T06:09:49;6.82;;;4.13;;
46290;SDS011;32023;44.444;26.006;2023-05-29T06:18:29;10.77;;;3.92;;
46290;SDS011;32023;44.444;26.006;2023-05-29T06:24:06;5.95;;;3.50;;
46290;SDS011;32023;44.444;26.006;2023-05-29T06:26:35;7.90;;;3.60;;
46290;SDS011;32023;44.444;26.006;2023-05-29T06:43:58;10.07;;;3.78;;
46290;SDS011;32023;44.444;26.006;2023-05-29T06:46:52;10.38;;;3.30;;
46290;SDS011;32023;44.444;26.006;2023-05-29T06:49:54;7.28;;;3.95;;
46290;SDS011;32023;44.444;26.006;2023-05-29T06:55:09;10.55;;;3.80;;
46290;SDS011;32023;44.444;26.006;2023-05-29T07:06:54;10.85;;;3.20;;
46290;SDS011;32023;44.444;26.006;2023-05-29T07:09:36;5.03;;;3.13;;
46290;SDS011;32023;44.444;26.006;2023-05-29T07:15:05;4.28;;;2.78;;
46290;SDS011;32023;44.444;26.006;2023-05-29T07:17:34;5.13;;;2.90;;
46290;SDS011;32023;44.444;26.006;2023-05-29T07:20:18;6.75;;;3.10;;
46290;SDS011;32023;44.444;26.006;2023-05-29T07:22:58;8.50;;;3.40;;
46290;SDS011;32023;44.444;26.006;2023-05-29T07:25:25;8.25;;;2.85;;
46290;SDS011;32023;44.444;26.006;2023-05-29T07:27:51;7.85;;;3.30;;
46290;SDS011;32023;44.444;26.006;2023-05-29T07:30:21;8.02;;;2.92;;
46290;SDS011;32023;44.444;26.006;2023-05-29T07:32:54;7.32;;;2.83;;
46290;SDS011;32023;44.444;26.006;2023-05-29T07:35:22;7.40;;;3.20;;
46290;SDS011;32023;44.444;26.006;2023-05-29T07:37:48;3.92;;;2.65;;
46290;SDS011;32023;44.444;26.006;2023-05-29T07:40:23;7.07;;;3.40;;
46290;SDS011;32023;44.444;26.006;2023-05-29T07:42:53;6.35;;;2.88;;
46290;SDS011;32023;44.444;26.006;2023-05-29T07:45:23;7.05;;;3.28;;
46290;SDS011;32023;44.444;26.006;2023-05-29T07:47:52;5.65;;;2.95;;
46290;SDS011;32023;44.444;26.006;2023-05-29T07:50:31;7.13;;;3.30;;
46290;SDS011;32023;44.444;26.006;2023-05-29T07:53:02;9.18;;;3.25;;
46290;SDS011;32023;44.444;26.006;2023-05-29T07:55:29;6.10;;;3.17;;
46290;SDS011;32023;44.444;26.006;2023-05-29T07:57:56;7.50;;;3.30;;
46290;SDS011;32023;44.444;26.006;2023-05-29T08:00:23;8.10;;;3.30;;
46290;SDS011;32023;44.444;26.006;2023-05-29T08:05:32;7.13;;;3.03;;
46290;SDS011;32023;44.444;26.006;2023-05-29T08:07:58;8.60;;;3.25;;
46290;SDS011;32023;44.444;26.006;2023-05-29T08:10:25;5.30;;;3.15;;
46290;SDS011;32023;44.444;26.006;2023-05-29T08:12:52;5.90;;;3.30;;
46290;SDS011;32023;44.444;26.006;2023-05-29T08:15:20;9.80;;;3.38;;
46290;SDS011;32023;44.444;26.006;2023-05-29T08:17:52;6.38;;;3.47;;
46290;SDS011;32023;44.444;26.006;2023-05-29T08:20:23;10.18;;;3.67;;
46290;SDS011;32023;44.444;26.006;2023-05-29T08:22:56;8.10;;;3.78;;
46290;SDS011;32023;44.444;26.006;2023-05-29T08:25:27;10.68;;;3.20;;
46290;SDS011;32023;44.444;26.006;2023-05-29T08:27:54;8.18;;;3.08;;
46290;SDS011;32023;44.444;26.006;2023-05-29T08:30:34;10.52;;;3.97;;
46290;SDS011;32023;44.444;26.006;2023-05-29T08:35:57;7.38;;;4.05;;
46290;SDS011;32023;44.444;26.006;2023-05-29T08:38:31;9.77;;;3.83;;
46290;SDS011;32023;44.444;26.006;2023-05-29T08:41:04;8.35;;;3.42;;
46290;SDS011;32023;44.444;26.006;2023-05-29T08:43:51;8.30;;;3.75;;
46290;SDS011;32023;44.444;26.006;2023-05-29T08:46:27;9.02;;;3.58;;
46290;SDS011;32023;44.444;26.006;2023-05-29T08:52:19;5.85;;;3.20;;
46290;SDS011;32023;44.444;26.006;2023-05-29T08:54:52;7.68;;;3.38;;
46290;SDS011;32023;44.444;26.006;2023-05-29T09:07:26;10.27;;;4.05;;
46290;SDS011;32023;44.444;26.006;2023-05-29T09:09:57;11.35;;;3.88;;
46290;SDS011;32023;44.444;26.006;2023-05-29T09:26:26;12.55;;;4.20;;
46290;SDS011;32023;44.444;26.006;2023-05-29T09:31:58;6.88;;;3.88;;
46290;SDS011;32023;44.444;26.006;2023-05-29T09:34:39;7.32;;;4.30;;
46290;SDS011;32023;44.444;26.006;2023-05-29T09:37:10;6.65;;;3.47;;
46290;SDS011;32023;44.444;26.006;2023-05-29T09:42:44;9.80;;;3.38;;
46290;SDS011;32023;44.444;26.006;2023-05-29T09:45:21;11.63;;;3.35;;
46290;SDS011;32023;44.444;26.006;2023-05-29T09:48:06;8.80;;;4.05;;
46290;SDS011;32023;44.444;26.006;2023-05-29T09:50:50;8.15;;;3.13;;
46290;SDS011;32023;44.444;26.006;2023-05-29T09:53:20;7.72;;;3.53;;
46290;SDS011;32023;44.444;26.006;2023-05-29T09:55:55;6.22;;;3.00;;
46290;SDS011;32023;44.444;26.006;2023-05-29T09:58:28;6.90;;;3.15;;
46290;SDS011;32023;44.444;26.006;2023-05-29T10:01:25;4.80;;;3.22;;
46290;SDS011;32023;44.444;26.006;2023-05-29T10:04:19;10.20;;;3.33;;
46290;SDS011;32023;44.444;26.006;2023-05-29T10:06:48;6.60;;;3.50;;
46290;SDS011;32023;44.444;26.006;2023-05-29T10:09:37;5.68;;;3.13;;
46290;SDS011;32023;44.444;26.006;2023-05-29T10:12:45;7.68;;;2.80;;
46290;SDS011;32023;44.444;26.006;2023-05-29T10:15:57;4.82;;;3.17;;
46290;SDS011;32023;44.444;26.006;2023-05-29T10:18:56;6.40;;;3.40;;
46290;SDS011;32023;44.444;26.006;2023-05-29T10:22:12;8.25;;;3.05;;
46290;SDS011;32023;44.444;26.006;2023-05-29T10:28:07;4.63;;;3.00;;
46290;SDS011;32023;44.444;26.006;2023-05-29T10:36:43;5.38;;;3.20;;
46290;SDS011;32023;44.444;26.006;2023-05-29T10:39:21;11.63;;;3.20;;
46290;SDS011;32023;44.444;26.006;2023-05-29T10:44:53;4.72;;;2.90;;
46290;SDS011;32023;44.444;26.006;2023-05-29T10:51:15;5.93;;;3.10;;
46290;SDS011;32023;44.444;26.006;2023-05-29T10:57:39;8.02;;;3.03;;
46290;SDS011;32023;44.444;26.006;2023-05-29T11:00:39;5.63;;;2.83;;
46290;SDS011;32023;44.444;26.006;2023-05-29T11:07:01;7.88;;;2.97;;
46290;SDS011;32023;44.444;26.006;2023-05-29T11:31:19;6.03;;;3.13;;
46290;SDS011;32023;44.444;26.006;2023-05-29T11:34:16;5.82;;;3.20;;
46290;SDS011;32023;44.444;26.006;2023-05-29T11:36:53;9.50;;;3.03;;
46290;SDS011;32023;44.444;26.006;2023-05-29T11:39:37;12.75;;;3.42;;
46290;SDS011;32023;44.444;26.006;2023-05-29T11:42:17;7.18;;;3.28;;
46290;SDS011;32023;44.444;26.006;2023-05-29T11:44:50;6.30;;;3.17;;
46290;SDS011;32023;44.444;26.006;2023-05-29T11:47:56;6.05;;;3.08;;
46290;SDS011;32023;44.444;26.006;2023-05-29T11:53:32;8.95;;;2.70;;
46290;SDS011;32023;44.444;26.006;2023-05-29T11:56:08;6.30;;;2.70;;
46290;SDS011;32023;44.444;26.006;2023-05-29T11:58:44;5.25;;;3.03;;
46290;SDS011;32023;44.444;26.006;2023-05-29T12:01:44;12.45;;;3.55;;
46290;SDS011;32023;44.444;26.006;2023-05-29T12:04:19;3.92;;;2.58;;
46290;SDS011;32023;44.444;26.006;2023-05-29T12:10:16;7.10;;;3.10;;
46290;SDS011;32023;44.444;26.006;2023-05-29T12:13:04;7.43;;;3.22;;
46290;SDS011;32023;44.444;26.006;2023-05-29T12:15:36;6.10;;;3.30;;
46290;SDS011;32023;44.444;26.006;2023-05-29T12:18:05;5.82;;;3.03;;
46290;SDS011;32023;44.444;26.006;2023-05-29T12:20:39;7.13;;;3.58;;
46290;SDS011;32023;44.444;26.006;2023-05-29T12:23:15;7.47;;;2.97;;
46290;SDS011;32023;44.444;26.006;2023-05-29T12:25:51;4.55;;;3.20;;
46290;SDS011;32023;44.444;26.006;2023-05-29T12:28:20;7.35;;;2.97;;
46290;SDS011;32023;44.444;26.006;2023-05-29T12:30:50;5.47;;;2.85;;
46290;SDS011;32023;44.444;26.006;2023-05-29T12:33:35;5.28;;;2.70;;
46290;SDS011;32023;44.444;26.006;2023-05-29T12:36:42;9.55;;;3.28;;
46290;SDS011;32023;44.444;26.006;2023-05-29T12:39:14;4.40;;;3.25;;
46290;SDS011;32023;44.444;26.006;2023-05-29T12:41:53;6.95;;;2.85;;
46290;SDS011;32023;44.444;26.006;2023-05-29T12:50:33;6.72;;;3.22;;
46290;SDS011;32023;44.444;26.006;2023-05-29T12:55:48;5.28;;;2.80;;
46290;SDS011;32023;44.444;26.006;2023-05-29T12:58:22;3.95;;;2.83;;
46290;SDS011;32023;44.444;26.006;2023-05-29T13:00:54;5.25;;;3.15;;
46290;SDS011;32023;44.444;26.006;2023-05-29T13:03:26;7.75;;;2.80;;
46290;SDS011;32023;44.444;26.006;2023-05-29T13:06:02;8.13;;;3.50;;
46290;SDS011;32023;44.444;26.006;2023-05-29T13:08:32;7.68;;;2.60;;
46290;SDS011;32023;44.444;26.006;2023-05-29T13:11:03;5.47;;;2.95;;
46290;SDS011;32023;44.444;26.006;2023-05-29T13:13:55;9.43;;;3.33;;
46290;SDS011;32023;44.444;26.006;2023-05-29T13:16:22;7.25;;;2.90;;
46290;SDS011;32023;44.444;26.006;2023-05-29T13:21:52;9.70;;;3.15;;
46290;SDS011;32023;44.444;26.006;2023-05-29T13:24:29;7.68;;;3.72;;
46290;SDS011;32023;44.444;26.006;2023-05-29T13:29:54;8.77;;;3.45;;
46290;SDS011;32023;44.444;26.006;2023-05-29T13:32:37;4.82;;;3.20;;
46290;SDS011;32023;44.444;26.006;2023-05-29T13:35:06;5.25;;;3.25;;
46290;SDS011;32023;44.444;26.006;2023-05-29T13:38:03;5.15;;;3.03;;
46290;SDS011;32023;44.444;26.006;2023-05-29T13:40:29;4.28;;;3.13;;
46290;SDS011;32023;44.444;26.006;2023-05-29T13:50:04;6.47;;;3.45;;
46290;SDS011;32023;44.444;26.006;2023-05-29T14:03:06;5.80;;;3.30;;
46290;SDS011;32023;44.444;26.006;2023-05-29T14:18:56;7.57;;;3.22;;
46290;SDS011;32023;44.444;26.006;2023-05-29T16:15:10;5.32;;;3.00;;
46290;SDS011;32023;44.444;26.006;2023-05-29T16:18:13;10.15;;;3.47;;
46290;SDS011;32023;44.444;26.006;2023-05-29T16:23:53;6.32;;;3.58;;
46290;SDS011;32023;44.444;26.006;2023-05-29T16:26:51;5.18;;;3.35;;
46290;SDS011;32023;44.444;26.006;2023-05-29T16:29:27;10.13;;;3.22;;
46290;SDS011;32023;44.444;26.006;2023-05-29T16:32:02;6.27;;;3.03;;
46290;SDS011;32023;44.444;26.006;2023-05-29T16:34:46;9.18;;;3.63;;
46290;SDS011;32023;44.444;26.006;2023-05-29T16:37:27;5.65;;;3.25;;
46290;SDS011;32023;44.444;26.006;2023-05-29T16:39:53;5.03;;;3.00;;
46290;SDS011;32023;44.444;26.006;2023-05-29T16:45:12;6.88;;;3.13;;
46290;SDS011;32023;44.444;26.006;2023-05-29T16:47:39;7.53;;;3.97;;
46290;SDS011;32023;44.444;26.006;2023-05-29T17:08:50;10.70;;;3.72;;
46290;SDS011;32023;44.444;26.006;2023-05-29T17:11:54;9.15;;;3.30;;
46290;SDS011;32023;44.444;26.006;2023-05-29T17:14:54;8.63;;;3.63;;
46290;SDS011;32023;44.444;26.006;2023-05-29T17:17:26;5.30;;;3.60;;
46290;SDS011;32023;44.444;26.006;2023-05-29T17:19:59;3.78;;;3.08;;
46290;SDS011;32023;44.444;26.006;2023-05-29T17:22:41;6.88;;;3.60;;
46290;SDS011;32023;44.444;26.006;2023-05-29T17:25:18;6.47;;;4.05;;
46290;SDS011;32023;44.444;26.006;2023-05-29T17:27:56;7.47;;;3.67;;
46290;SDS011;32023;44.444;26.006;2023-05-29T17:39:49;7.25;;;3.45;;
46290;SDS011;32023;44.444;26.006;2023-05-29T17:42:38;6.28;;;3.78;;
46290;SDS011;32023;44.444;26.006;2023-05-29T17:45:05;8.80;;;3.65;;
46290;SDS011;32023;44.444;26.006;2023-05-29T17:47:36;6.18;;;3.63;;
46290;SDS011;32023;44.444;26.006;2023-05-29T17:50:05;8.35;;;3.90;;
46290;SDS011;32023;44.444;26.006;2023-05-29T17:55:57;12.93;;;3.72;;
46290;SDS011;32023;44.444;26.006;2023-05-29T17:59:03;12.07;;;4.43;;
46290;SDS011;32023;44.444;26.006;2023-05-29T18:05:13;11.77;;;4.22;;
46290;SDS011;32023;44.444;26.006;2023-05-29T18:30:28;12.48;;;4.68;;
46290;SDS011;32023;44.444;26.006;2023-05-29T18:36:51;12.35;;;5.25;;
46290;SDS011;32023;44.444;26.006;2023-05-29T18:39:18;15.85;;;5.38;;
46290;SDS011;32023;44.444;26.006;2023-05-29T18:41:52;12.00;;;4.88;;
46290;SDS011;32023;44.444;26.006;2023-05-29T18:44:45;13.60;;;5.83;;
46290;SDS011;32023;44.444;26.006;2023-05-29T18:47:43;9.90;;;5.53;;
46290;SDS011;32023;44.444;26.006;2023-05-29T18:57:17;14.63;;;6.20;;
46290;SDS011;32023;44.444;26.006;2023-05-29T18:59:50;10.70;;;6.60;;
46290;SDS011;32023;44.444;26.006;2023-05-29T19:05:17;9.07;;;5.28;;
46290;SDS011;32023;44.444;26.006;2023-05-29T19:11:10;7.22;;;4.95;;
46290;SDS011;32023;44.444;26.006;2023-05-29T19:13:43;8.35;;;4.60;;
46290;SDS011;32023;44.444;26.006;2023-05-29T19:16:15;6.73;;;4.70;;
46290;SDS011;32023;44.444;26.006;2023-05-29T19:18:42;7.88;;;5.35;;
46290;SDS011;32023;44.444;26.006;2023-05-29T19:21:19;14.60;;;5.63;;
46290;SDS011;32023;44.444;26.006;2023-05-29T19:26:45;10.85;;;5.55;;
46290;SDS011;32023;44.444;26.006;2023-05-29T19:29:18;13.73;;;5.43;;
46290;SDS011;32023;44.444;26.006;2023-05-29T19:34:50;10.27;;;5.10;;
46290;SDS011;32023;44.444;26.006;2023-05-29T19:40:44;15.73;;;6.03;;
46290;SDS011;32023;44.444;26.006;2023-05-29T19:46:02;11.60;;;6.05;;
46290;SDS011;32023;44.444;26.006;2023-05-29T19:48:46;9.63;;;5.35;;
46290;SDS011;32023;44.444;26.006;2023-05-29T19:51:19;14.57;;;6.60;;
46290;SDS011;32023;44.444;26.006;2023-05-29T19:56:31;12.25;;;6.18;;
46290;SDS011;32023;44.444;26.006;2023-05-29T19:59:13;8.10;;;5.65;;
46290;SDS011;32023;44.444;26.006;2023-05-29T20:01:46;11.90;;;5.72;;
46290;SDS011;32023;44.444;26.006;2023-05-29T20:04:18;10.55;;;6.13;;
46290;SDS011;32023;44.444;26.006;2023-05-29T20:06:59;11.20;;;5.13;;
46290;SDS011;32023;44.444;26.006;2023-05-29T20:09:49;13.88;;;6.43;;
46290;SDS011;32023;44.444;26.006;2023-05-29T20:12:17;9.20;;;6.43;;
46290;SDS011;32023;44.444;26.006;2023-05-29T20:14:49;14.23;;;6.88;;
46290;SDS011;32023;44.444;26.006;2023-05-29T20:17:19;9.25;;;5.93;;
46290;SDS011;32023;44.444;26.006;2023-05-29T20:20:17;7.40;;;5.40;;
46290;SDS011;32023;44.444;26.006;2023-05-29T20:23:01;7.50;;;5.75;;
46290;SDS011;32023;44.444;26.006;2023-05-29T20:25:29;11.27;;;6.40;;
46290;SDS011;32023;44.444;26.006;2023-05-29T20:31:14;15.07;;;7.32;;
46290;SDS011;32023;44.444;26.006;2023-05-29T20:33:50;13.25;;;6.38;;
46290;SDS011;32023;44.444;26.006;2023-05-29T20:36:17;14.75;;;6.00;;
46290;SDS011;32023;44.444;26.006;2023-05-29T20:45:32;12.45;;;6.55;;
46290;SDS011;32023;44.444;26.006;2023-05-29T20:48:03;12.25;;;6.88;;
46290;SDS011;32023;44.444;26.006;2023-05-29T20:51:08;11.73;;;6.78;;
46290;SDS011;32023;44.444;26.006;2023-05-29T20:57:03;11.77;;;6.57;;
46290;SDS011;32023;44.444;26.006;2023-05-29T20:59:53;10.70;;;7.10;;
46290;SDS011;32023;44.444;26.006;2023-05-29T21:04:51;14.60;;;7.70;;
46290;SDS011;32023;44.444;26.006;2023-05-29T21:07:25;15.85;;;7.57;;
46290;SDS011;32023;44.444;26.006;2023-05-29T21:10:08;10.13;;;6.45;;
46290;SDS011;32023;44.444;26.006;2023-05-29T21:12:44;11.95;;;6.50;;
46290;SDS011;32023;44.444;26.006;2023-05-29T21:15:13;10.27;;;6.38;;
46290;SDS011;32023;44.444;26.006;2023-05-29T21:17:44;11.90;;;6.22;;
46290;SDS011;32023;44.444;26.006;2023-05-29T21:20:13;13.73;;;6.88;;
46290;SDS011;32023;44.444;26.006;2023-05-29T21:22:49;12.98;;;6.07;;
46290;SDS011;32023;44.444;26.006;2023-05-29T21:25:20;13.82;;;6.53;;
46290;SDS011;32023;44.444;26.006;2023-05-29T21:27:47;15.00;;;6.88;;
46290;SDS011;32023;44.444;26.006;2023-05-29T21:30:13;12.82;;;6.35;;
46290;SDS011;32023;44.444;26.006;2023-05-29T21:32:41;12.45;;;6.35;;
46290;SDS011;32023;44.444;26.006;2023-05-29T21:35:13;17.55;;;6.65;;
46290;SDS011;32023;44.444;26.006;2023-05-29T21:38:11;8.95;;;5.45;;
46290;SDS011;32023;44.444;26.006;2023-05-29T21:40:41;11.77;;;5.95;;
46290;SDS011;32023;44.444;26.006;2023-05-29T21:43:19;17.52;;;6.82;;
46290;SDS011;32023;44.444;26.006;2023-05-29T21:45:46;11.35;;;5.95;;
46290;SDS011;32023;44.444;26.006;2023-05-29T21:48:17;10.88;;;5.97;;
46290;SDS011;32023;44.444;26.006;2023-05-29T21:50:44;15.20;;;6.15;;
46290;SDS011;32023;44.444;26.006;2023-05-29T21:53:12;19.70;;;6.85;;
46290;SDS011;32023;44.444;26.006;2023-05-29T21:55:41;13.93;;;5.97;;
46290;SDS011;32023;44.444;26.006;2023-05-29T21:58:10;18.77;;;6.38;;
46290;SDS011;32023;44.444;26.006;2023-05-29T22:00:36;10.88;;;6.47;;
46290;SDS011;32023;44.444;26.006;2023-05-29T22:03:03;12.57;;;6.63;;
46290;SDS011;32023;44.444;26.006;2023-05-29T22:05:33;16.70;;;6.20;;
46290;SDS011;32023;44.444;26.006;2023-05-29T22:11:22;12.25;;;6.78;;
46290;SDS011;32023;44.444;26.006;2023-05-29T22:13:53;12.68;;;6.70;;
46290;SDS011;32023;44.444;26.006;2023-05-29T22:16:19;13.48;;;6.45;;
46290;SDS011;32023;44.444;26.006;2023-05-29T22:18:46;13.27;;;6.35;;
46290;SDS011;32023;44.444;26.006;2023-05-29T22:21:16;13.73;;;6.60;;
46290;SDS011;32023;44.444;26.006;2023-05-29T22:23:46;16.30;;;6.85;;
46290;SDS011;32023;44.444;26.006;2023-05-29T22:26:14;9.68;;;5.88;;
46290;SDS011;32023;44.444;26.006;2023-05-29T22:28:49;8.73;;;5.90;;
46290;SDS011;32023;44.444;26.006;2023-05-29T22:31:21;12.82;;;6.15;;
46290;SDS011;32023;44.444;26.006;2023-05-29T22:34:11;10.15;;;5.75;;
46290;SDS011;32023;44.444;26.006;2023-05-29T22:36:42;10.20;;;6.25;;
46290;SDS011;32023;44.444;26.006;2023-05-29T22:39:14;13.02;;;6.18;;
46290;SDS011;32023;44.444;26.006;2023-05-29T22:42:01;13.35;;;5.72;;
46290;SDS011;32023;44.444;26.006;2023-05-29T22:44:28;11.57;;;5.90;;
46290;SDS011;32023;44.444;26.006;2023-05-29T22:47:19;12.82;;;6.13;;
46290;SDS011;32023;44.444;26.006;2023-05-29T22:49:45;11.10;;;6.50;;
46290;SDS011;32023;44.444;26.006;2023-05-29T22:52:12;14.10;;;5.85;;
46290;SDS011;32023;44.444;26.006;2023-05-29T22:54:42;11.25;;;6.25;;
46290;SDS011;32023;44.444;26.006;2023-05-29T22:57:09;10.75;;;6.05;;
46290;SDS011;32023;44.444;26.006;2023-05-29T23:00:01;11.23;;;5.40;;
46290;SDS011;32023;44.444;26.006;2023-05-29T23:02:42;7.00;;;5.50;;
46290;SDS011;32023;44.444;26.006;2023-05-29T23:05:22;7.60;;;5.35;;